TimeIST,TemperatureF,Dew PointF,Humidity,Sea Level PressureIn,VisibilityMPH,Wind Direction,Wind SpeedMPH,Gust SpeedMPH,PrecipitationIn,Events,Conditions,WindDirDegrees,DateUTC
12:50 AM,59.0,53.6,82,30.04,-9999.0,SSE,1.2,-,N/A,,Clear,150,2012-11-25 22:50:00
1:50 AM,59.0,53.6,82,30.01,-9999.0,ESE,2.3,-,N/A,,Clear,120,2012-11-25 23:50:00
2:00 AM,59,54,79,30.03,6,ESE,2.3,,,,Mostly Cloudy,120,2012-11-26 00:00:00
2:50 AM,59.0,53.6,82,30.01,-9999.0,ENE,3.5,-,N/A,,Clear,70,2012-11-26 00:50:00
3:50 AM,59.0,53.6,82,30.04,6.2,North,2.3,-,N/A,,Partly Cloudy,360,2012-11-26 01:50:00
4:50 AM,57.2,53.6,88,30.01,-9999.0,Variable,2.3,-,N/A,,Clear,0,2012-11-26 02:50:00
5:50 AM,57.2,51.8,82,30.04,6.2,East,3.5,-,N/A,,Partly Cloudy,100,2012-11-26 03:50:00
6:50 AM,57.2,51.8,82,30.04,6.2,East,3.5,-,N/A,,Scattered Clouds,100,2012-11-26 04:50:00
7:50 AM,59.0,51.8,77,30.06,6.2,SE,4.6,-,N/A,,Partly Cloudy,140,2012-11-26 05:50:00
8:00 AM,59,53,73,30.07,6,SE,4.6,,,,Scattered Clouds,140,2012-11-26 06:00:00
8:50 AM,64.4,53.6,68,30.06,6.2,South,1.2,-,N/A,,Partly Cloudy,170,2012-11-26 06:50:00
9:50 AM,66.2,55.4,68,30.06,6.2,South,4.6,-,N/A,,Partly Cloudy,180,2012-11-26 07:50:00
10:50 AM,68.0,55.4,64,30.06,6.2,South,5.8,-,N/A,,Scattered Clouds,190,2012-11-26 08:50:00
11:50 AM,69.8,53.6,56,30.04,6.2,SW,3.5,-,N/A,,Mostly Cloudy,220,2012-11-26 09:50:00
12:50 PM,69.8,55.4,60,30.04,6.2,WSW,8.1,-,N/A,,Mostly Cloudy,240,2012-11-26 10:50:00
1:50 PM,69.8,55.4,60,30.04,6.2,WSW,9.2,-,N/A,,Mostly Cloudy,250,2012-11-26 11:50:00
2:00 PM,71,54,45,30.03,6,WSW,9.2,,,,Partly Cloudy,250,2012-11-26 12:00:00
2:50 PM,64.4,55.4,73,30.04,6.2,NE,9.2,-,N/A,,Mostly Cloudy,50,2012-11-26 12:50:00
3:40 PM,62.6,53.6,72,30.04,1.9,NNE,4.6,-,N/A,Rain,Rain Showers,20,2012-11-26 13:40:00
3:45 PM,62.6,51.8,68,30.04,5.6,Variable,2.3,-,N/A,Rain,Rain,0,2012-11-26 13:45:00
3:50 PM,64.4,53.6,68,30.04,5.6,Variable,2.3,-,N/A,Rain,Rain,0,2012-11-26 13:50:00
4:12 PM,64.4,53.6,68,30.04,6.2,SSE,3.5,-,N/A,Rain,Light Rain,160,2012-11-26 14:12:00
4:13 PM,64.4,53.6,68,30.04,6.2,SSE,3.5,-,N/A,Rain,Light Rain,160,2012-11-26 14:13:00
4:50 PM,64.4,57.2,77,30.04,6.2,NE,3.5,-,N/A,,Scattered Clouds,50,2012-11-26 14:50:00
5:50 PM,62.6,57.2,82,30.04,6.2,ENE,2.3,-,N/A,,Partly Cloudy,60,2012-11-26 15:50:00
6:50 PM,60.8,55.4,82,30.06,6.2,SE,1.2,-,N/A,,Partly Cloudy,130,2012-11-26 16:50:00
7:50 PM,60.8,55.4,82,30.06,-9999.0,ESE,2.3,-,N/A,,Clear,120,2012-11-26 17:50:00
8:00 PM,61,56,77,30.07,6,ESE,2.3,,,,Partly Cloudy,120,2012-11-26 18:00:00
8:50 PM,60.8,55.4,82,30.06,-9999.0,Variable,1.2,-,N/A,,Clear,0,2012-11-26 18:50:00
9:50 PM,59.0,53.6,82,30.06,-9999.0,ESE,4.6,-,N/A,,Clear,120,2012-11-26 19:50:00
10:50 PM,59.0,53.6,82,30.06,-9999.0,Variable,1.2,-,N/A,,Clear,0,2012-11-26 20:50:00
11:50 PM,59.0,53.6,82,30.06,6.2,NNE,4.6,-,N/A,,Scattered Clouds,30,2012-11-26 21:50:00